createdAt,value
2022-08-03T00:04:33.604Z,87.67
2022-08-03T00:09:36.113Z,87.03
2022-08-03T00:14:37.809Z,86.48
2022-08-03T00:19:39.442Z,87.94
2022-08-03T00:24:41.089Z,87.99
2022-08-03T00:29:59.927Z,88.54
2022-08-03T00:35:05.676Z,89.53
2022-08-03T00:40:13.643Z,90.52
2022-08-03T00:45:15.333Z,89.61
2022-08-03T00:50:18.520Z,89.36
2022-08-03T00:55:20.748Z,90.87
2022-08-03T01:00:25.040Z,93.01
2022-08-03T01:05:26.796Z,91.89
2022-08-03T01:10:46.942Z,91.90
2022-08-03T01:15:54.595Z,93.70
2022-08-03T01:21:00.922Z,93.54
2022-08-03T01:26:17.406Z,94.69
2022-08-03T01:31:23.948Z,93.67
2022-08-03T01:36:32.699Z,94.95
2022-08-03T01:41:38.921Z,94.49
2022-08-03T01:46:48.874Z,94.74
2022-08-03T01:51:58.553Z,95.15
2022-08-03T01:57:08.625Z,95.65
2022-08-03T02:02:15.572Z,95.43
2022-08-03T02:07:36.880Z,97.42
2022-08-03T02:12:39.867Z,97.20
2022-08-03T02:17:44.228Z,98.56
2022-08-03T02:22:47.210Z,98.07
2022-08-03T02:27:56.806Z,97.76
2022-08-03T02:33:01.429Z,98.71
2022-08-03T02:38:07.656Z,98.55
2022-08-03T02:43:16.140Z,98.54
2022-08-03T02:48:24.950Z,98.54
2022-08-03T02:53:28.944Z,99.54
2022-08-03T02:58:32.561Z,98.60
2022-08-03T03:03:42.878Z,99.35
2022-08-03T03:08:47.686Z,100.00
2022-08-03T03:13:49.999Z,100.00
2022-08-03T03:18:52.697Z,100.00
2022-08-03T03:23:54.971Z,100.00
2022-08-03T03:28:57.139Z,100.00
2022-08-03T03:33:59.712Z,100.00
2022-08-03T03:39:15.492Z,100.00
2022-08-03T03:44:17.853Z,100.00
2022-08-03T03:49:21.016Z,100.00
2022-08-03T03:54:25.340Z,100.00
2022-08-03T03:59:29.900Z,100.00
2022-08-03T04:04:51.807Z,100.00
2022-08-03T04:10:14.831Z,100.00
2022-08-03T04:15:22.793Z,100.00
2022-08-03T04:20:28.118Z,100.00
2022-08-03T04:25:32.920Z,100.00
2022-08-03T04:30:37.675Z,97.35
2022-08-03T04:35:58.601Z,94.16
2022-08-03T04:41:04.090Z,87.43
2022-08-03T04:46:07.182Z,87.36
2022-08-03T04:51:10.957Z,88.66
2022-08-03T04:56:12.627Z,85.24
2022-08-03T05:01:15.639Z,85.45
2022-08-03T05:06:17.291Z,81.47
2022-08-03T05:11:19.263Z,82.05
2022-08-03T05:16:20.936Z,79.97
2022-08-03T05:21:22.588Z,80.91
2022-08-03T05:26:24.283Z,80.68
2022-08-03T05:31:25.929Z,77.90
2022-08-03T05:36:27.640Z,74.25
2022-08-03T05:41:37.015Z,74.64
2022-08-03T05:46:39.230Z,75.71
2022-08-03T05:51:40.863Z,76.74
2022-08-03T05:56:42.717Z,76.31
2022-08-03T06:01:44.439Z,75.01
2022-08-03T06:06:46.175Z,72.10
2022-08-03T06:11:47.838Z,71.24
2022-08-03T06:16:49.522Z,70.80
2022-08-03T06:21:51.301Z,69.21
2022-08-03T06:26:53.317Z,61.03
2022-08-03T06:31:54.946Z,57.50
2022-08-03T06:37:01.814Z,55.04
2022-08-03T06:42:04.268Z,56.16
2022-08-03T06:47:05.980Z,57.55
2022-08-03T06:52:07.631Z,58.53
2022-08-03T06:57:11.607Z,59.44
2022-08-03T07:02:19.161Z,57.95
2022-08-03T07:07:21.279Z,54.33
2022-08-03T07:12:23.001Z,50.45
2022-08-03T07:17:24.892Z,50.22
2022-08-03T07:22:27.023Z,52.35
2022-08-03T07:27:29.896Z,52.73
2022-08-03T07:32:31.993Z,53.12
2022-08-03T07:37:34.040Z,48.86
2022-08-03T07:42:35.796Z,43.48
2022-08-03T07:47:37.594Z,39.84
2022-08-03T07:52:48.332Z,37.85
2022-08-03T07:58:06.443Z,34.06
2022-08-03T08:03:09.044Z,30.63
2022-08-03T08:08:11.179Z,30.26
2022-08-03T08:13:12.918Z,32.22
2022-08-03T08:18:14.596Z,29.35
2022-08-03T08:23:41.557Z,29.69
2022-08-03T08:28:39.610Z,30.10
2022-08-03T08:39:03.075Z,29.39
2022-08-03T08:44:05.069Z,29.83
2022-08-03T08:49:10.018Z,30.03
2022-08-03T08:54:12.880Z,31.60
2022-08-03T08:59:15.246Z,27.66
2022-08-03T09:04:17.619Z,31.26
2022-08-03T09:09:28.449Z,34.79
2022-08-03T09:14:54.873Z,34.85
2022-08-03T09:20:09.254Z,32.71
2022-08-03T09:25:24.314Z,31.63
2022-08-03T09:30:33.404Z,33.25
2022-08-03T09:35:53.503Z,34.12
2022-08-03T09:41:00.465Z,31.11
2022-08-03T09:46:04.859Z,32.03
2022-08-03T09:51:13.867Z,29.32
2022-08-03T09:56:47.307Z,31.42
2022-08-03T10:01:49.142Z,27.61
2022-08-03T10:07:11.149Z,27.20
2022-08-03T10:12:13.905Z,30.35
2022-08-03T10:17:16.008Z,27.49
2022-08-03T10:22:27.882Z,29.67
2022-08-03T10:27:36.699Z,30.04
2022-08-03T10:32:48.763Z,34.83
2022-08-03T10:37:59.894Z,29.59
2022-08-03T10:43:13.305Z,28.19
2022-08-03T10:48:15.943Z,29.69
2022-08-03T10:53:34.568Z,29.49
2022-08-03T10:58:57.625Z,29.03
2022-08-03T11:03:59.752Z,30.41
2022-08-03T11:09:10.606Z,29.30
2022-08-03T11:14:15.108Z,30.55
2022-08-03T11:19:22.615Z,30.66
2022-08-03T11:24:41.478Z,29.24
2022-08-03T11:30:10.521Z,27.70
2022-08-03T11:35:16.349Z,27.64
2022-08-03T11:40:41.313Z,27.13
2022-08-03T11:46:00.318Z,28.66
2022-08-03T11:51:03.520Z,29.23
2022-08-03T11:56:05.195Z,26.21
2022-08-03T12:01:21.230Z,24.62
2022-08-03T12:06:24.673Z,25.34
2022-08-03T12:11:26.437Z,27.70
2022-08-03T12:16:28.913Z,28.47
2022-08-03T12:21:31.345Z,25.24
2022-08-03T12:26:59.560Z,26.11
2022-08-03T12:32:01.696Z,27.02
2022-08-03T12:37:05.161Z,29.52
2022-08-03T12:42:37.756Z,31.66
2022-08-03T12:47:56.198Z,29.59
2022-08-03T12:52:59.605Z,28.19
2022-08-03T12:58:05.353Z,27.72
2022-08-03T13:03:39.571Z,27.24
2022-08-03T13:08:30.084Z,27.31
2022-08-03T13:13:38.667Z,29.50
2022-08-03T13:18:40.362Z,29.04
2022-08-03T13:23:43.817Z,28.97
2022-08-03T13:28:45.497Z,27.65
2022-08-03T13:33:47.139Z,28.45
2022-08-03T13:38:48.789Z,28.76
2022-08-03T13:44:06.719Z,29.86
2022-08-03T13:49:12.681Z,30.56
2022-08-03T13:54:14.413Z,31.88
2022-08-03T13:59:16.124Z,32.39
2022-08-03T14:04:21.955Z,31.21
2022-08-03T14:09:24.203Z,31.51
2022-08-03T14:14:25.847Z,31.54
2022-08-03T14:19:28.098Z,31.66
2022-08-03T14:24:30.072Z,29.51
2022-08-03T14:29:32.058Z,30.73
2022-08-03T14:34:33.740Z,30.10
2022-08-03T14:45:02.453Z,30.10
2022-08-03T14:50:36.014Z,29.98
2022-08-03T14:55:29.145Z,31.27
2022-08-03T15:00:40.671Z,31.25
2022-08-03T15:05:42.293Z,31.42
2022-08-03T15:10:45.408Z,31.97
2022-08-03T15:15:48.399Z,30.76
2022-08-03T15:20:50.910Z,30.59
2022-08-03T15:26:28.152Z,31.19
2022-08-03T15:31:18.831Z,30.91
2022-08-03T15:36:21.139Z,30.20
2022-08-03T15:41:22.928Z,31.02
2022-08-03T15:46:29.651Z,31.98
2022-08-03T15:51:31.683Z,30.71
2022-08-03T15:56:33.499Z,30.99
2022-08-03T16:01:35.319Z,30.51
2022-08-03T16:06:37.090Z,32.44
2022-08-03T16:11:38.763Z,31.31
2022-08-03T16:16:41.063Z,30.96
2022-08-03T16:21:48.073Z,32.07
2022-08-03T16:26:50.584Z,32.31
2022-08-03T16:31:52.937Z,32.15
2022-08-03T16:36:54.730Z,32.51
2022-08-03T16:42:01.173Z,32.03
2022-08-03T16:47:03.427Z,32.16
2022-08-03T16:52:05.589Z,32.88
2022-08-03T16:57:08.931Z,32.96
2022-08-03T17:02:20.569Z,33.59
2022-08-03T17:07:29.693Z,32.56
2022-08-03T17:12:32.053Z,32.73
2022-08-03T17:17:47.701Z,33.17
2022-08-03T17:23:14.532Z,33.55
2022-08-03T17:28:51.023Z,33.22
2022-08-03T17:34:00.500Z,33.85
2022-08-03T17:39:04.826Z,33.82
2022-08-03T17:44:15.838Z,34.18
2022-08-03T17:49:31.191Z,34.40
2022-08-03T17:55:56.317Z,35.81
2022-08-03T18:00:34.243Z,36.15
2022-08-03T18:06:11.086Z,37.23
2022-08-03T18:11:14.745Z,38.43
2022-08-03T18:16:24.712Z,39.71
2022-08-03T18:21:28.302Z,39.78
2022-08-03T18:26:50.891Z,39.36
2022-08-03T18:32:02.646Z,41.90
2022-08-03T18:37:07.677Z,42.58
2022-08-03T18:42:19.465Z,42.96
2022-08-03T18:47:52.299Z,43.53
2022-08-03T18:52:54.349Z,44.48
2022-08-03T18:58:04.156Z,44.23
2022-08-03T19:03:12.546Z,44.69
2022-08-03T19:08:45.143Z,45.45
2022-08-03T19:13:51.261Z,45.43
2022-08-03T19:18:55.816Z,46.58
2022-08-03T19:24:10.128Z,48.38
2022-08-03T19:29:15.323Z,50.06
2022-08-03T19:34:17.981Z,49.51
2022-08-03T19:39:20.194Z,50.46
2022-08-03T19:44:28.397Z,51.64
2022-08-03T19:50:00.013Z,52.09
2022-08-03T19:55:00.524Z,53.46
2022-08-03T20:00:05.489Z,53.95
2022-08-03T20:05:14.817Z,54.60
2022-08-03T20:10:18.204Z,54.76
2022-08-03T20:15:22.354Z,54.77
2022-08-03T20:20:35.249Z,55.46
2022-08-03T20:25:48.888Z,57.82
2022-08-03T20:30:59.822Z,58.10
2022-08-03T20:36:01.787Z,59.02
2022-08-03T20:41:04.527Z,59.86
2022-08-03T20:46:32.005Z,60.36
2022-08-03T20:51:52.897Z,61.27
2022-08-03T20:56:51.732Z,62.50
2022-08-03T21:01:53.749Z,61.67
2022-08-03T21:07:04.084Z,61.50
2022-08-03T21:12:27.489Z,62.36
2022-08-03T21:17:41.686Z,62.91
2022-08-03T21:22:47.439Z,64.34
2022-08-03T21:27:51.976Z,64.60
2022-08-03T21:32:55.279Z,64.76
2022-08-03T21:38:16.473Z,65.99
2022-08-03T21:43:19.538Z,65.41
2022-08-03T21:48:25.220Z,65.88
2022-08-03T21:54:02.839Z,67.00
2022-08-03T21:58:55.243Z,67.45
2022-08-03T22:03:58.427Z,68.00
2022-08-03T22:09:00.560Z,68.25
2022-08-03T22:14:02.791Z,67.88
2022-08-03T22:19:04.524Z,67.88
2022-08-03T22:24:06.548Z,68.95
2022-08-03T22:29:08.555Z,69.75
2022-08-03T22:34:10.261Z,70.17
2022-08-03T22:39:12.732Z,70.09
2022-08-03T22:44:27.879Z,70.50
2022-08-03T22:49:31.665Z,72.60
2022-08-03T22:54:35.381Z,72.19
2022-08-03T22:59:38.805Z,72.46
2022-08-03T23:04:44.845Z,72.88
2022-08-03T23:09:48.452Z,72.68
2022-08-03T23:14:56.222Z,73.78
2022-08-03T23:20:17.201Z,73.69
2022-08-03T23:25:18.936Z,74.40
2022-08-03T23:30:20.687Z,75.03
2022-08-03T23:36:28.420Z,74.72
2022-08-03T23:41:14.148Z,74.69
2022-08-03T23:46:18.240Z,75.02
2022-08-03T23:51:30.995Z,76.03
2022-08-03T23:56:42.798Z,76.76
